TimeEST,TemperatureF,Dew PointF,Humidity,Sea Level PressureIn,VisibilityMPH,Wind Direction,Wind SpeedMPH,Gust SpeedMPH,PrecipitationIn,Events,Conditions,WindDirDegrees,DateUTC
12:55 AM,30.9,27.3,86,30.21,10.0,SE,3.5,-,N/A,,Scattered Clouds,140,2013-02-07 05:55:00
1:55 AM,30.6,27.7,89,30.19,10.0,ESE,6.9,-,N/A,,Mostly Cloudy,120,2013-02-07 06:55:00
2:55 AM,30.2,28.0,92,30.16,10.0,SE,10.4,-,N/A,,Mostly Cloudy,130,2013-02-07 07:55:00
3:55 AM,30.2,27.9,91,30.14,10.0,SE,12.7,-,N/A,,Scattered Clouds,140,2013-02-07 08:55:00
4:55 AM,30.4,28.0,91,30.13,10.0,SE,11.5,-,N/A,,Overcast,130,2013-02-07 09:55:00
5:17 AM,30.2,28.4,93,30.15,9.0,SE,4.6,-,N/A,,Mostly Cloudy,130,2013-02-07 10:17:00
5:22 AM,30.2,28.4,93,30.15,9.0,SE,8.1,-,N/A,,Mostly Cloudy,140,2013-02-07 10:22:00
5:32 AM,30.2,28.4,93,30.16,9.0,SE,6.9,-,N/A,,Mostly Cloudy,130,2013-02-07 10:32:00
5:55 AM,30.4,28.0,91,30.15,9.0,ESE,8.1,-,N/A,,Mostly Cloudy,110,2013-02-07 10:55:00
6:02 AM,30.2,28.4,93,30.15,9.0,East,6.9,-,N/A,,Mostly Cloudy,100,2013-02-07 11:02:00
6:12 AM,30.2,28.4,93,30.14,9.0,ESE,8.1,-,N/A,,Scattered Clouds,110,2013-02-07 11:12:00
6:55 AM,30.2,28.0,92,30.14,5.0,East,8.1,-,N/A,,Overcast,100,2013-02-07 11:55:00
7:55 AM,30.2,28.2,92,30.13,5.0,ESE,6.9,-,N/A,,Overcast,110,2013-02-07 12:55:00
8:55 AM,31.5,28.6,89,30.12,7.0,East,6.9,-,N/A,,Mostly Cloudy,80,2013-02-07 13:55:00
9:55 AM,32.7,28.9,86,30.12,8.0,East,6.9,-,N/A,,Mostly Cloudy,90,2013-02-07 14:55:00
10:32 AM,35.6,32.0,87,30.10,9.0,ESE,10.4,-,N/A,,Mostly Cloudy,110,2013-02-07 15:32:00
10:55 AM,36.0,31.3,83,30.09,10.0,ESE,11.5,-,N/A,,Mostly Cloudy,110,2013-02-07 15:55:00
11:55 AM,38.8,33.1,80,30.07,10.0,ESE,11.5,-,N/A,,Clear,110,2013-02-07 16:55:00
12:55 PM,41.9,35.1,77,30.02,10.0,ESE,11.5,-,N/A,,Clear,120,2013-02-07 17:55:00
1:27 PM,44.6,35.6,71,30.00,10.0,ESE,11.5,-,N/A,,Clear,110,2013-02-07 18:27:00
1:28 PM,44.6,35.6,71,30.00,10.0,ESE,11.5,-,N/A,,Clear,110,2013-02-07 18:28:00
1:55 PM,44.4,36.3,73,29.99,9.0,SE,10.4,-,0.00,,Clear,130,2013-02-07 18:55:00
2:55 PM,46.2,37.8,72,29.94,10.0,ESE,9.2,-,N/A,,Scattered Clouds,120,2013-02-07 19:55:00
3:55 PM,47.8,39.0,71,29.91,10.0,ESE,8.1,-,N/A,,Scattered Clouds,120,2013-02-07 20:55:00
4:55 PM,47.5,40.1,76,29.88,10.0,ESE,8.1,-,N/A,,Mostly Cloudy,120,2013-02-07 21:55:00
5:55 PM,42.1,37.9,85,29.87,10.0,ESE,9.2,-,N/A,,Scattered Clouds,120,2013-02-07 22:55:00
6:55 PM,40.1,34.5,80,29.84,10.0,SE,8.1,-,N/A,,Mostly Cloudy,130,2013-02-07 23:55:00
7:55 PM,41.4,35.4,79,29.82,10.0,SSE,5.8,-,N/A,,Overcast,150,2013-02-08 00:55:00
8:37 PM,42.8,35.6,76,29.82,10.0,South,9.2,-,N/A,Rain,Light Rain,190,2013-02-08 01:37:00
8:55 PM,41.7,38.1,87,29.83,10.0,NW,8.1,-,0.00,Rain,Light Rain,310,2013-02-08 01:55:00
9:52 PM,41.0,39.2,93,29.83,10.0,West,9.2,-,N/A,Rain,Light Rain,260,2013-02-08 02:52:00
9:55 PM,40.3,39.0,95,29.83,8.0,WSW,9.2,-,0.02,Rain,Light Rain,250,2013-02-08 02:55:00
10:30 PM,39.2,39.2,100,29.82,6.0,West,9.2,-,N/A,,Light Drizzle,260,2013-02-08 03:30:00
10:41 PM,39.2,39.2,100,29.82,5.0,West,10.4,-,N/A,,Overcast,270,2013-02-08 03:41:00
10:55 PM,39.6,39.6,100,29.82,5.0,West,12.7,-,0.00,,Overcast,270,2013-02-08 03:55:00
11:11 PM,39.2,39.2,100,29.81,6.0,West,12.7,-,N/A,,Light Drizzle,280,2013-02-08 04:11:00
11:37 PM,39.2,39.2,100,29.82,6.0,West,13.8,-,N/A,,Overcast,280,2013-02-08 04:37:00
11:39 PM,39.2,39.2,100,29.82,7.0,West,13.8,-,N/A,,Light Drizzle,280,2013-02-08 04:39:00
11:55 PM,37.9,37.9,100,29.82,7.0,West,12.7,-,0.01,Rain,Light Rain,280,2013-02-08 04:55:00